Time;durP1;ratioP1;P1;durP2;ratioP2;P2;SDS_P1;SDS_P2;PMS_P1;PMS_P2;Temp;Humidity;BMP_temperature;BMP_pressure;BME280_temperature;BME280_humidity;BME280_pressure;Samples;Min_cycle;Max_cycle;Signal;HPM_P1;HPM_P2
2021/08/28 00:04:56;;;;;;;11.02;4.03;;;;;;;14.22;100.00;101857.28;10459086;28;20052;-66
2021/08/28 00:09:58;;;;;;;5.93;3.45;;;;;;;14.18;100.00;101856.63;10458642;28;20045;-65
2021/08/28 00:15:01;;;;;;;12.23;3.35;;;;;;;14.20;100.00;101849.47;10458625;28;20127;-66
2021/08/28 00:20:05;;;;;;;12.45;4.70;;;;;;;14.15;100.00;101842.78;10458459;28;20041;-66
2021/08/28 00:25:08;;;;;;;8.40;3.75;;;;;;;14.47;100.00;101848.84;10458573;28;20060;-66
2021/08/28 00:30:12;;;;;;;10.50;3.95;;;;;;;14.34;100.00;101838.19;10457944;28;20052;-66
2021/08/28 00:35:14;;;;;;;10.48;4.72;;;;;;;14.29;100.00;101833.16;10458058;28;20052;-64
2021/08/28 00:40:17;;;;;;;9.38;4.45;;;;;;;14.38;100.00;101815.16;10458032;28;20041;-65
2021/08/28 00:45:42;;;;;;;13.02;5.03;;;;;;;14.63;100.00;101823.34;10457602;28;20053;-65
2021/08/28 00:50:45;;;;;;;12.75;4.22;;;;;;;14.57;100.00;101818.41;10457122;28;20504;-66
2021/08/28 00:55:49;;;;;;;16.92;5.65;;;;;;;14.42;100.00;101821.94;10457155;28;20053;-65
2021/08/28 01:01:11;;;;;;;13.18;4.32;;;;;;;14.55;100.00;101824.72;10456860;28;20048;-67
2021/08/28 01:06:33;;;;;;;14.73;4.45;;;;;;;14.76;100.00;101825.25;10456768;28;20453;-65
2021/08/28 01:11:43;;;;;;;18.60;5.37;;;;;;;14.79;100.00;101841.78;10455685;28;20045;-65
2021/08/28 01:16:50;;;;;;;11.40;4.85;;;;;;;14.71;100.00;101840.50;10456097;28;20041;-64
2021/08/28 01:21:53;;;;;;;10.90;4.50;;;;;;;14.65;100.00;101832.00;10456450;28;20052;-64
2021/08/28 01:27:07;;;;;;;15.48;6.05;;;;;;;14.62;100.00;101841.91;10455120;28;20516;-64
2021/08/28 01:32:10;;;;;;;11.77;5.35;;;;;;;14.62;100.00;101833.97;10455188;28;20428;-65
2021/08/28 01:37:14;;;;;;;12.73;6.65;;;;;;;14.54;100.00;101829.16;10455075;28;20535;-65
2021/08/28 01:42:17;;;;;;;13.68;5.88;;;;;;;14.79;100.00;101839.16;10457805;28;20489;-65
2021/08/28 01:47:21;;;;;;;14.50;6.03;;;;;;;14.60;100.00;101844.63;10464586;28;20053;-64
2021/08/28 01:52:23;;;;;;;14.05;6.68;;;;;;;14.58;100.00;101843.00;10464158;28;20374;-66
2021/08/28 01:57:26;;;;;;;11.63;6.38;;;;;;;14.65;100.00;101842.56;10464437;28;20405;-64
2021/08/28 02:02:29;;;;;;;15.25;7.15;;;;;;;14.79;100.00;101848.81;10462601;28;20485;-64
2021/08/28 02:07:50;;;;;;;10.63;4.53;;;;;;;14.71;100.00;101846.66;10463618;28;20056;-65
2021/08/28 02:12:56;;;;;;;18.52;6.40;;;;;;;14.74;100.00;101827.16;10463960;28;20045;-65
2021/08/28 02:18:11;;;;;;;12.70;5.45;;;;;;;14.48;100.00;101822.41;10462030;28;20405;-67
2021/08/28 02:23:22;;;;;;;10.50;6.28;;;;;;;14.67;100.00;101824.84;10463415;28;20057;-65
2021/08/28 02:28:33;;;;;;;10.27;4.30;;;;;;;14.88;100.00;101829.84;10461506;28;20405;-65
2021/08/28 02:33:37;;;;;;;15.93;5.60;;;;;;;14.71;100.00;101838.75;10462067;28;20052;-66
2021/08/28 02:38:41;;;;;;;12.90;5.88;;;;;;;14.59;100.00;101842.94;10461142;28;20052;-66
2021/08/28 02:43:45;;;;;;;10.13;5.25;;;;;;;14.87;100.00;101838.66;10462684;28;20052;-66
2021/08/28 02:48:47;;;;;;;8.95;6.40;;;;;;;14.71;100.00;101833.47;10462011;28;20047;-66
2021/08/28 02:53:50;;;;;;;12.93;6.53;;;;;;;14.73;100.00;101818.41;10461856;28;20048;-66
2021/08/28 02:58:53;;;;;;;12.40;6.55;;;;;;;14.72;100.00;101831.66;10460486;28;20045;-65
2021/08/28 03:03:56;;;;;;;11.93;5.22;;;;;;;14.79;100.00;101831.22;10460345;28;20413;-66
2021/08/28 03:08:59;;;;;;;12.40;5.55;;;;;;;14.92;100.00;101827.88;10460979;28;20409;-66
2021/08/28 03:14:01;;;;;;;13.95;5.07;;;;;;;14.89;100.00;101831.50;10461175;28;20060;-66
2021/08/28 03:19:05;;;;;;;11.63;4.90;;;;;;;14.93;100.00;101827.78;10460829;28;20068;-66
2021/08/28 03:24:08;;;;;;;12.35;5.15;;;;;;;15.05;100.00;101828.81;10459892;28;20049;-66
2021/08/28 03:29:21;;;;;;;13.10;5.45;;;;;;;14.95;100.00;101836.44;10459962;28;20048;-65
2021/08/28 03:34:23;;;;;;;12.30;4.72;;;;;;;14.92;100.00;101818.16;10459143;28;20049;-64
2021/08/28 03:39:27;;;;;;;13.23;5.63;;;;;;;15.00;100.00;101817.72;10460640;28;20049;-65
2021/08/28 03:44:29;;;;;;;11.27;5.90;;;;;;;15.04;100.00;101817.41;10460292;28;20068;-66
2021/08/28 03:49:31;;;;;;;10.50;5.10;;;;;;;15.08;100.00;101815.47;10459736;28;20059;-66
2021/08/28 03:54:34;;;;;;;11.80;5.00;;;;;;;14.98;100.00;101816.97;10459710;28;20049;-65
2021/08/28 03:59:36;;;;;;;15.10;5.82;;;;;;;14.91;100.00;101816.47;10459129;28;20049;-64
2021/08/28 04:04:38;;;;;;;11.57;5.30;;;;;;;14.92;100.00;101825.22;10459275;28;20064;-65
2021/08/28 04:09:41;;;;;;;14.20;4.50;;;;;;;15.12;100.00;101816.97;10458498;28;20073;-65
2021/08/28 04:14:43;;;;;;;8.45;4.05;;;;;;;15.09;100.00;101808.38;10457536;28;20059;-65
2021/08/28 04:19:45;;;;;;;10.80;4.68;;;;;;;15.16;100.00;101805.31;10457142;28;20049;-66
2021/08/28 04:24:48;;;;;;;8.40;4.47;;;;;;;15.24;100.00;101810.94;10458534;28;20065;-66
2021/08/28 04:29:50;;;;;;;5.95;4.55;;;;;;;15.12;100.00;101811.69;10458393;28;20409;-66
2021/08/28 04:34:52;;;;;;;8.50;5.03;;;;;;;14.99;100.00;101816.00;10457804;28;20497;-66
2021/08/28 04:39:55;;;;;;;8.70;4.47;;;;;;;14.91;100.00;101824.38;10457622;28;20052;-65
2021/08/28 04:44:57;;;;;;;10.55;5.07;;;;;;;14.96;100.00;101824.97;10457668;28;20059;-65
2021/08/28 04:49:59;;;;;;;8.93;4.88;;;;;;;14.82;100.00;101822.28;10457325;28;20048;-65
2021/08/28 04:55:02;;;;;;;17.35;6.40;;;;;;;15.00;100.00;101821.19;10457815;28;20056;-66
2021/08/28 05:00:05;;;;;;;7.60;4.57;;;;;;;14.80;100.00;101822.38;10456729;28;20045;-65
2021/08/28 05:05:08;;;;;;;8.45;4.32;;;;;;;14.86;100.00;101821.16;10457524;28;20044;-65
2021/08/28 05:10:10;;;;;;;10.38;4.95;;;;;;;15.12;100.00;101822.22;10457363;28;20045;-66
2021/08/28 05:15:13;;;;;;;10.15;5.70;;;;;;;15.07;100.00;101834.00;10456737;28;20053;-66
2021/08/28 05:20:15;;;;;;;11.05;5.55;;;;;;;14.87;100.00;101841.31;10456091;28;20400;-65
2021/08/28 05:25:17;;;;;;;11.23;5.68;;;;;;;15.15;100.00;101839.69;10457371;28;20064;-65
2021/08/28 05:30:20;;;;;;;10.40;4.10;;;;;;;15.31;100.00;101847.50;10456227;28;20370;-66
2021/08/28 05:35:22;;;;;;;9.80;6.00;;;;;;;15.08;100.00;101849.75;10456443;28;20053;-66
2021/08/28 05:40:25;;;;;;;12.15;6.65;;;;;;;15.18;100.00;101850.03;10456117;28;20041;-65
2021/08/28 05:45:27;;;;;;;11.57;6.07;;;;;;;14.93;100.00;101846.22;10456623;28;20056;-65
2021/08/28 05:50:30;;;;;;;9.45;4.80;;;;;;;15.24;100.00;101842.59;10455571;28;20106;-66
2021/08/28 05:55:32;;;;;;;12.05;6.20;;;;;;;15.20;100.00;101854.28;10455721;28;20052;-67
2021/08/28 06:00:34;;;;;;;8.48;4.32;;;;;;;15.13;100.00;101845.03;10455571;28;20048;-65
2021/08/28 06:05:37;;;;;;;10.63;6.38;;;;;;;15.08;100.00;101841.84;10455810;28;20088;-65
2021/08/28 06:10:39;;;;;;;12.30;6.78;;;;;;;15.07;100.00;101842.75;10455297;28;20049;-65
2021/08/28 06:15:42;;;;;;;11.57;5.68;;;;;;;15.41;100.00;101846.00;10455449;28;20056;-66
2021/08/28 06:20:44;;;;;;;9.95;5.32;;;;;;;15.27;100.00;101851.28;10455579;28;20045;-67
2021/08/28 06:25:46;;;;;;;6.15;4.47;;;;;;;15.59;100.00;101851.94;10455648;28;20060;-66
2021/08/28 06:30:49;;;;;;;5.85;3.67;;;;;;;15.65;100.00;101855.97;10459484;28;20056;-66
2021/08/28 06:35:51;;;;;;;14.52;6.03;;;;;;;15.79;100.00;101872.69;10462523;28;20055;-65
2021/08/28 06:40:53;;;;;;;8.93;4.30;;;;;;;15.88;100.00;101865.16;10462363;28;20045;-66
2021/08/28 06:45:56;;;;;;;12.88;5.22;;;;;;;16.02;100.00;101866.91;10460852;28;20071;-66
2021/08/28 06:50:59;;;;;;;9.48;5.40;;;;;;;16.12;100.00;101857.44;10461985;28;20405;-65
2021/08/28 06:56:01;;;;;;;6.75;4.25;;;;;;;16.02;100.00;101867.78;10461975;28;20053;-65
2021/08/28 07:01:03;;;;;;;8.32;3.72;;;;;;;15.91;100.00;101864.97;10461626;28;20052;-65
2021/08/28 07:06:06;;;;;;;8.57;4.32;;;;;;;15.95;100.00;101861.16;10461505;28;20074;-66
2021/08/28 07:11:08;;;;;;;5.40;3.53;;;;;;;15.96;100.00;101869.00;10461134;28;20401;-65
2021/08/28 07:16:11;;;;;;;9.90;3.30;;;;;;;16.15;100.00;101873.97;10460992;28;20053;-65
2021/08/28 07:21:14;;;;;;;7.15;4.20;;;;;;;16.33;100.00;101873.72;10460673;28;20095;-64
2021/08/28 07:26:17;;;;;;;10.23;4.88;;;;;;;16.21;100.00;101866.59;10460796;28;20052;-67
2021/08/28 07:31:19;;;;;;;8.30;3.85;;;;;;;16.45;100.00;101870.28;10460529;28;20049;-65
2021/08/28 07:36:22;;;;;;;7.30;5.32;;;;;;;16.49;100.00;101873.56;10460194;28;20049;-66
2021/08/28 07:41:24;;;;;;;11.15;4.65;;;;;;;16.35;100.00;101870.03;10459598;28;20408;-64
2021/08/28 07:46:27;;;;;;;12.52;6.00;;;;;;;16.68;100.00;101866.13;10459763;28;20492;-65
2021/08/28 07:51:29;;;;;;;7.78;4.68;;;;;;;16.59;100.00;101879.94;10459695;28;20049;-65
2021/08/28 07:56:31;;;;;;;8.52;5.25;;;;;;;16.92;100.00;101881.34;10459466;28;20049;-65
2021/08/28 08:01:34;;;;;;;8.43;4.82;;;;;;;16.94;100.00;101883.88;10459287;28;20041;-65
2021/08/28 08:06:37;;;;;;;9.73;5.30;;;;;;;17.10;100.00;101887.19;10459410;28;20045;-66
2021/08/28 08:11:39;;;;;;;10.10;5.20;;;;;;;16.76;100.00;101881.50;10459133;28;20044;-67
2021/08/28 08:16:41;;;;;;;11.38;6.00;;;;;;;16.88;100.00;101895.75;10458607;28;20041;-65
2021/08/28 08:21:44;;;;;;;6.55;4.88;;;;;;;17.46;100.00;101890.91;10458750;28;20049;-68
2021/08/28 08:26:46;;;;;;;10.73;5.38;;;;;;;17.61;100.00;101886.34;10458181;28;20053;-65
2021/08/28 08:31:53;;;;;;;8.68;5.38;;;;;;;17.42;100.00;101895.56;10458296;28;20127;-65
2021/08/28 08:36:55;;;;;;;9.45;4.35;;;;;;;17.57;100.00;101892.84;10457940;28;20045;-66
2021/08/28 08:41:58;;;;;;;11.15;5.22;;;;;;;18.23;100.00;101887.31;10457778;28;20041;-66
2021/08/28 08:47:00;;;;;;;7.47;4.78;;;;;;;17.60;100.00;101896.09;10456168;28;20057;-65
2021/08/28 08:52:03;;;;;;;12.43;5.25;;;;;;;17.50;100.00;101895.06;10457141;28;20517;-65
2021/08/28 08:57:06;;;;;;;6.68;5.10;;;;;;;17.73;100.00;101901.38;10457221;28;20049;-67
2021/08/28 09:02:08;;;;;;;11.35;6.32;;;;;;;17.64;100.00;101904.69;10457207;28;20052;-65
2021/08/28 09:07:14;;;;;;;12.50;6.43;;;;;;;17.53;100.00;101918.66;10456759;28;20053;-65
2021/08/28 09:12:17;;;;;;;8.57;4.97;;;;;;;17.76;100.00;101911.75;10456778;28;20049;-64
2021/08/28 09:17:21;;;;;;;8.98;4.85;;;;;;;18.44;100.00;101912.28;10456737;28;20523;-64
2021/08/28 09:22:33;;;;;;;18.30;5.97;;;;;;;18.43;100.00;101901.78;10457258;28;20111;-63
2021/08/28 09:27:43;;;;;;;5.43;4.90;;;;;;;18.38;100.00;101902.09;10456758;28;20060;-65
2021/08/28 09:32:52;;;;;;;11.90;5.50;;;;;;;18.41;99.34;101899.25;10456307;28;20412;-65
2021/08/28 09:37:57;;;;;;;9.23;5.10;;;;;;;19.10;98.09;101895.91;10456242;28;20041;-65
2021/08/28 09:43:03;;;;;;;8.13;4.43;;;;;;;19.11;97.48;101900.25;10456242;28;20056;-64
2021/08/28 09:48:07;;;;;;;11.85;5.32;;;;;;;18.62;95.90;101912.69;10456001;28;20056;-64
2021/08/28 09:53:09;;;;;;;6.38;4.68;;;;;;;18.18;92.27;101912.34;10456255;28;20041;-65
2021/08/28 09:58:12;;;;;;;13.10;4.82;;;;;;;18.75;94.38;101917.97;10455963;28;20045;-66
2021/08/28 10:03:14;;;;;;;8.20;4.32;;;;;;;18.26;93.14;101927.69;10457394;28;20041;-66
2021/08/28 10:08:17;;;;;;;5.18;4.28;;;;;;;18.29;95.78;101926.63;10463706;28;20053;-66
2021/08/28 10:13:24;;;;;;;6.43;4.82;;;;;;;19.02;91.34;101909.75;10462142;28;20501;-66
2021/08/28 10:18:29;;;;;;;4.78;4.22;;;;;;;19.03;91.43;101915.91;10463104;28;20045;-66
2021/08/28 10:23:32;;;;;;;7.18;4.68;;;;;;;19.76;87.13;101904.09;10462294;28;20485;-65
2021/08/28 10:28:34;;;;;;;6.85;4.38;;;;;;;;;;10462800;28;20045;-66
2021/08/28 10:33:37;;;;;;;10.15;4.53;;;;;;;22.17;77.86;101899.97;10462839;28;20056;-66
2021/08/28 10:38:41;;;;;;;7.43;4.57;;;;;;;21.45;73.32;101907.13;10462122;28;20512;-66
2021/08/28 10:43:43;;;;;;;5.45;3.42;;;;;;;20.42;77.99;101908.59;10461490;28;20044;-66
2021/08/28 10:48:57;;;;;;;5.35;3.60;;;;;;;19.91;81.06;101923.31;10461760;28;20382;-65
2021/08/28 10:54:03;;;;;;;6.22;2.83;;;;;;;19.49;79.82;101917.72;10461906;28;20049;-65
2021/08/28 10:59:35;;;;;;;4.22;3.40;;;;;;;20.26;80.10;101903.69;10461592;28;20506;-65
2021/08/28 11:04:42;;;;;;;5.70;4.05;;;;;;;20.84;77.53;101908.69;10451722;28;20049;-66
2021/08/28 11:10:09;;;;;;;4.43;3.08;;;;;;;19.91;81.53;101904.69;10461690;28;20049;-64
2021/08/28 11:15:23;;;;;;;6.05;3.70;;;;;;;18.96;84.46;101901.41;10460514;28;20056;-64
2021/08/28 11:20:48;;;;;;;3.38;3.00;;;;;;;18.83;84.06;101910.31;10460256;28;20052;-65
2021/08/28 11:25:57;;;;;;;4.10;2.85;;;;;;;18.60;82.33;101917.28;10458910;28;20474;-65
2021/08/28 11:31:00;;;;;;;4.43;2.60;;;;;;;18.91;81.29;101915.88;10460910;28;20045;-64
2021/08/28 11:36:05;;;;;;;5.22;3.20;;;;;;;19.03;82.46;101911.47;10460380;28;20056;-64
2021/08/28 11:41:10;;;;;;;5.55;3.17;;;;;;;18.74;82.18;101918.91;10460184;28;20045;-65
2021/08/28 11:46:26;;;;;;;4.90;3.25;;;;;;;18.92;84.45;101914.06;10460003;28;20048;-64
2021/08/28 11:51:29;;;;;;;5.95;3.63;;;;;;;19.43;82.77;101911.06;10459293;28;20052;-65
2021/08/28 11:56:33;;;;;;;5.72;3.20;;;;;;;18.98;83.82;101916.28;10458136;28;20049;-63
2021/08/28 12:01:42;;;;;;;3.45;2.92;;;;;;;19.15;85.76;101911.47;10458689;28;20069;-63
2021/08/28 12:06:52;;;;;;;9.02;3.20;;;;;;;19.29;78.99;101909.47;10459281;28;20064;-64
2021/08/28 12:11:55;;;;;;;4.45;3.10;;;;;;;19.56;80.87;101913.59;10458502;28;20045;-64
2021/08/28 12:16:59;;;;;;;4.28;2.58;;;;;;;19.58;83.93;101914.31;10457797;28;20045;-64
2021/08/28 12:22:05;;;;;;;5.53;3.45;;;;;;;19.08;85.33;101925.22;10458520;28;20049;-64
2021/08/28 12:27:09;;;;;;;11.90;3.28;;;;;;;19.24;81.48;101913.44;10457505;28;20409;-66
2021/08/28 12:32:13;;;;;;;7.30;4.03;;;;;;;19.53;80.96;101915.66;10458056;28;20045;-65
2021/08/28 12:37:18;;;;;;;5.10;3.10;;;;;;;19.49;81.46;101917.72;10458194;28;20427;-65
2021/08/28 12:42:24;;;;;;;6.53;2.70;;;;;;;19.36;81.50;101915.13;10458123;28;20049;-64
2021/08/28 12:47:32;;;;;;;5.32;3.33;;;;;;;19.18;83.51;101917.41;10456301;28;20155;-65
2021/08/28 12:52:47;;;;;;;6.90;3.45;;;;;;;19.56;82.52;101928.69;10457588;28;20052;-64
2021/08/28 12:57:58;;;;;;;5.68;2.97;;;;;;;19.84;81.99;101919.44;10457225;28;20493;-65
2021/08/28 13:03:00;;;;;;;3.63;2.65;;;;;;;20.01;79.48;101926.06;10457038;28;20516;-66
2021/08/28 13:08:04;;;;;;;3.47;2.72;;;;;;;20.53;79.87;101921.03;10456818;28;20048;-65
2021/08/28 13:13:07;;;;;;;2.95;2.45;;;;;;;21.05;77.19;101918.53;10456786;28;20045;-65
2021/08/28 13:18:20;;;;;;;2.72;2.00;;;;;;;20.54;74.70;101917.38;10456422;28;20041;-64
2021/08/28 13:23:30;;;;;;;3.33;2.63;;;;;;;20.64;74.69;101914.84;10457298;28;20045;-65
2021/08/28 13:28:41;;;;;;;4.03;2.65;;;;;;;19.68;78.23;101915.28;10456668;28;20045;-67
2021/08/28 13:33:44;;;;;;;2.35;1.80;;;;;;;19.24;81.73;101924.91;10456115;28;20053;-65
2021/08/28 13:38:46;;;;;;;4.43;2.10;;;;;;;19.12;83.27;101931.16;10457467;28;20049;-65
2021/08/28 13:43:49;;;;;;;4.35;2.45;;;;;;;18.72;85.35;101931.44;10465258;28;20040;-65
2021/08/28 13:48:51;;;;;;;4.28;2.20;;;;;;;18.90;86.77;101929.28;10464493;28;20053;-66
2021/08/28 13:53:54;;;;;;;5.28;2.10;;;;;;;18.84;87.19;101935.03;10463254;28;20049;-64
2021/08/28 13:58:56;;;;;;;3.42;1.98;;;;;;;18.51;89.94;101931.22;10464258;28;20057;-66
2021/08/28 14:03:58;;;;;;;6.22;2.58;;;;;;;18.50;92.93;101930.38;10464135;28;20045;-66
2021/08/28 14:09:01;;;;;;;4.10;1.90;;;;;;;18.90;88.80;101929.28;10463899;28;20107;-66
2021/08/28 14:14:03;;;;;;;3.42;2.15;;;;;;;19.00;89.17;101916.16;10463487;28;20424;-66
2021/08/28 14:19:06;;;;;;;4.15;2.58;;;;;;;19.25;85.71;101921.28;10463023;28;20481;-64
2021/08/28 14:24:08;;;;;;;7.45;3.10;;;;;;;19.35;82.13;101917.91;10462705;28;20049;-65
2021/08/28 14:29:10;;;;;;;4.90;2.30;;;;;;;19.39;85.20;101916.72;10463108;28;20064;-66
2021/08/28 14:34:15;;;;;;;3.95;2.22;;;;;;;19.27;82.76;101919.34;10463054;28;20045;-66
2021/08/28 14:39:18;;;;;;;6.95;2.25;;;;;;;19.25;85.05;101923.94;10462386;28;20053;-65
2021/08/28 14:44:21;;;;;;;4.90;2.40;;;;;;;18.87;81.84;101921.53;10462677;28;20045;-66
2021/08/28 14:49:23;;;;;;;6.90;2.38;;;;;;;18.80;83.10;101937.03;10461162;28;20063;-66
2021/08/28 14:54:25;;;;;;;4.55;1.90;;;;;;;19.20;83.47;101930.53;10462084;28;20045;-65
2021/08/28 14:59:28;;;;;;;2.83;2.10;;;;;;;19.06;84.09;101932.47;10461577;28;20049;-65
2021/08/28 15:04:30;;;;;;;5.50;2.28;;;;;;;19.25;81.94;101936.38;10461692;28;20052;-66
2021/08/28 15:09:33;;;;;;;4.40;2.10;;;;;;;19.29;79.98;101948.44;10461506;28;20049;-66
2021/08/28 15:14:35;;;;;;;4.20;2.10;;;;;;;19.45;80.75;101950.75;10461164;28;20053;-66
2021/08/28 15:19:37;;;;;;;3.60;2.05;;;;;;;19.10;84.49;101939.22;10461553;28;20049;-66
2021/08/28 15:24:40;;;;;;;3.10;2.17;;;;;;;19.49;84.61;101950.41;10461849;28;20056;-64
2021/08/28 15:29:42;;;;;;;4.15;2.17;;;;;;;18.79;86.09;101945.94;10460567;28;20049;-64
2021/08/28 15:34:46;;;;;;;3.08;1.83;;;;;;;18.62;87.37;101949.84;10461021;28;20055;-64
2021/08/28 15:39:48;;;;;;;7.60;2.92;;;;;;;18.63;86.64;101956.00;10460308;28;20098;-65
2021/08/28 15:44:51;;;;;;;5.75;2.10;;;;;;;18.54;87.17;101955.72;10460362;28;20053;-64
2021/08/28 15:49:53;;;;;;;4.93;2.30;;;;;;;18.64;88.37;101958.53;10460377;28;20164;-65
2021/08/28 15:54:59;;;;;;;8.43;2.25;;;;;;;18.50;84.45;101967.50;10460165;28;20049;-64
2021/08/28 16:00:01;;;;;;;1.60;1.50;;;;;;;17.90;82.71;101971.75;10459912;28;20519;-65
2021/08/28 16:05:09;;;;;;;3.47;1.83;;;;;;;17.99;83.00;101968.47;10459217;28;20060;-64
2021/08/28 16:10:14;;;;;;;4.30;2.42;;;;;;;18.45;84.55;101963.50;10458910;28;20060;-64
2021/08/28 16:15:17;;;;;;;6.15;2.17;;;;;;;18.39;84.00;101962.09;10459411;28;20049;-64
2021/08/28 16:20:19;;;;;;;3.20;1.95;;;;;;;18.44;85.71;101965.31;10459325;28;20124;-64
2021/08/28 16:25:21;;;;;;;6.10;2.55;;;;;;;18.44;84.20;101975.91;10458715;28;20063;-64
2021/08/28 16:30:24;;;;;;;5.72;2.38;;;;;;;18.13;84.79;101970.13;10458068;28;20412;-66
2021/08/28 16:35:26;;;;;;;5.35;2.65;;;;;;;18.08;85.54;101977.56;10457945;28;20481;-64
2021/08/28 16:40:31;;;;;;;3.60;2.03;;;;;;;17.76;85.90;101977.13;10457923;28;20064;-66
2021/08/28 16:45:33;;;;;;;4.85;2.88;;;;;;;17.93;82.68;101976.84;10457601;28;20505;-66
2021/08/28 16:50:36;;;;;;;7.82;1.88;;;;;;;17.81;81.79;101975.84;10457594;28;20068;-66
2021/08/28 16:55:38;;;;;;;3.83;2.08;;;;;;;17.91;80.32;101973.44;10457091;28;20515;-64
2021/08/28 17:00:40;;;;;;;2.97;1.60;;;;;;;17.64;82.57;101979.66;10457418;28;20056;-64
2021/08/28 17:05:43;;;;;;;5.30;2.25;;;;;;;17.85;84.32;101980.94;10457086;28;20057;-64
2021/08/28 17:10:45;;;;;;;3.38;1.90;;;;;;;17.42;85.57;101985.59;10457261;28;20052;-65
2021/08/28 17:15:47;;;;;;;2.08;1.88;;;;;;;17.51;86.16;101993.84;10456808;28;20049;-63
2021/08/28 17:20:54;;;;;;;2.75;1.77;;;;;;;17.37;86.54;101998.28;10456503;28;20060;-64
2021/08/28 17:25:57;;;;;;;3.80;2.22;;;;;;;17.37;87.65;101998.28;10456395;28;20063;-64
2021/08/28 17:30:59;;;;;;;5.60;2.03;;;;;;;17.41;88.52;101998.91;10456653;28;20045;-64
2021/08/28 17:36:02;;;;;;;11.15;3.05;;;;;;;17.24;89.23;101992.94;10456384;28;20052;-64
2021/08/28 17:41:05;;;;;;;3.70;2.20;;;;;;;17.21;90.22;101992.31;10456274;28;20049;-65
2021/08/28 17:46:07;;;;;;;2.58;2.10;;;;;;;17.11;90.47;101999.16;10456052;28;20481;-64
2021/08/28 17:51:10;;;;;;;3.60;2.53;;;;;;;17.30;90.13;101998.78;10456055;28;20045;-63
2021/08/28 17:56:13;;;;;;;6.53;2.47;;;;;;;17.29;90.90;102010.34;10455979;28;20052;-64
2021/08/28 18:01:18;;;;;;;5.00;2.50;;;;;;;17.27;91.09;102010.44;10455904;28;20090;-66
2021/08/28 18:06:22;;;;;;;4.32;2.85;;;;;;;16.93;93.40;102009.16;10456363;28;20149;-64
2021/08/28 18:11:24;;;;;;;5.10;1.98;;;;;;;16.84;91.41;102003.50;10455641;28;20531;-66
2021/08/28 18:16:26;;;;;;;3.05;2.15;;;;;;;17.19;90.37;102016.22;10455584;28;20045;-66
2021/08/28 18:21:29;;;;;;;7.43;2.42;;;;;;;16.96;91.83;102014.25;10455480;28;20053;-65
2021/08/28 18:26:32;;;;;;;4.28;2.10;;;;;;;16.94;91.61;102021.44;10459085;28;20051;-66
2021/08/28 18:31:35;;;;;;;5.85;2.53;;;;;;;16.80;93.29;102024.97;10463074;28;20081;-65
2021/08/28 18:36:38;;;;;;;6.80;3.03;;;;;;;16.71;92.29;102029.03;10462373;28;20485;-66
2021/08/28 18:41:41;;;;;;;3.78;2.35;;;;;;;16.51;92.09;102025.84;10463185;28;20056;-66
2021/08/28 18:46:43;;;;;;;3.45;1.85;;;;;;;16.86;91.74;102030.72;10462214;28;20497;-65
2021/08/28 18:51:45;;;;;;;7.35;1.90;;;;;;;16.75;89.25;102043.75;10462217;28;20529;-65
2021/08/28 18:56:48;;;;;;;3.80;2.17;;;;;;;16.52;89.95;102031.97;10461668;28;20408;-66
2021/08/28 19:01:52;;;;;;;4.75;2.38;;;;;;;16.52;90.02;102047.84;10461717;28;20131;-66
2021/08/28 19:06:55;;;;;;;3.63;2.13;;;;;;;16.64;90.71;102048.88;10461702;28;20132;-66
2021/08/28 19:11:58;;;;;;;5.43;1.92;;;;;;;16.21;91.19;102054.19;10461644;28;20045;-66
2021/08/28 19:17:01;;;;;;;9.32;2.35;;;;;;;16.19;92.69;102056.06;10460999;28;20053;-65
2021/08/28 19:22:04;;;;;;;4.50;2.45;;;;;;;16.11;92.85;102067.13;10461243;28;20053;-66
2021/08/28 19:27:06;;;;;;;2.83;2.35;;;;;;;15.78;95.46;102062.91;10460702;28;20064;-66
2021/08/28 19:32:09;;;;;;;6.25;2.55;;;;;;;15.84;95.95;102059.91;10461245;28;20045;-65
2021/08/28 19:37:11;;;;;;;3.15;2.45;;;;;;;15.79;95.51;102072.53;10459621;28;20056;-66
2021/08/28 19:42:13;;;;;;;6.57;2.40;;;;;;;15.42;98.54;102062.31;10460763;28;20052;-65
2021/08/28 19:47:16;;;;;;;3.30;2.28;;;;;;;15.31;98.12;102066.50;10459943;28;20048;-66
2021/08/28 19:52:18;;;;;;;4.55;1.98;;;;;;;15.37;99.38;102071.44;10459868;28;20401;-65
2021/08/28 19:57:21;;;;;;;3.53;2.30;;;;;;;15.40;98.32;102069.47;10459233;28;20049;-66
2021/08/28 20:02:23;;;;;;;4.38;2.20;;;;;;;15.08;100.00;102065.16;10459651;28;20045;-65
2021/08/28 20:07:25;;;;;;;4.97;2.75;;;;;;;15.12;100.00;102057.00;10459202;28;20055;-66
2021/08/28 20:12:28;;;;;;;5.50;2.75;;;;;;;14.99;100.00;102061.25;10459418;28;20051;-66
2021/08/28 20:17:32;;;;;;;4.03;2.75;;;;;;;14.89;100.00;102060.91;10459426;28;20053;-67
2021/08/28 20:22:34;;;;;;;6.70;3.25;;;;;;;14.84;100.00;102065.59;10459033;28;20071;-65
2021/08/28 20:27:37;;;;;;;8.20;4.15;;;;;;;14.83;100.00;102062.09;10458551;28;20060;-66
2021/08/28 20:32:40;;;;;;;7.25;3.45;;;;;;;14.54;100.00;102070.72;10458315;28;20060;-67
2021/08/28 20:37:43;;;;;;;4.20;3.08;;;;;;;14.57;100.00;102068.75;10458354;28;20045;-65
2021/08/28 20:42:46;;;;;;;3.40;3.00;;;;;;;14.50;100.00;102062.13;10457992;28;20045;-65
2021/08/28 20:47:48;;;;;;;4.55;2.80;;;;;;;14.54;100.00;102057.53;10456571;28;20493;-66
2021/08/28 20:52:50;;;;;;;3.92;2.25;;;;;;;14.50;100.00;102057.69;10457852;28;20056;-64
2021/08/28 20:57:53;;;;;;;7.53;2.95;;;;;;;14.45;100.00;102062.38;10457484;28;20049;-65
2021/08/28 21:02:55;;;;;;;7.05;3.05;;;;;;;14.25;100.00;102063.44;10457353;28;20052;-66
2021/08/28 21:07:58;;;;;;;6.15;2.85;;;;;;;14.46;100.00;102063.25;10457139;28;20227;-65
2021/08/28 21:13:00;;;;;;;7.05;3.20;;;;;;;14.21;100.00;102061.91;10456831;28;20049;-65
2021/08/28 21:18:03;;;;;;;4.15;3.28;;;;;;;14.49;100.00;102060.41;10456926;28;20045;-65
2021/08/28 21:23:05;;;;;;;5.90;3.30;;;;;;;14.29;100.00;102069.41;10456667;28;20057;-65
2021/08/28 21:28:07;;;;;;;8.20;3.35;;;;;;;14.26;100.00;102067.78;10456784;28;20049;-65
2021/08/28 21:33:10;;;;;;;6.32;3.25;;;;;;;14.18;100.00;102064.69;10456404;28;20489;-65
2021/08/28 21:38:12;;;;;;;9.38;4.07;;;;;;;14.10;100.00;102061.59;10456257;28;20041;-66
2021/08/28 21:43:14;;;;;;;4.80;3.05;;;;;;;14.24;100.00;102069.66;10456175;28;20413;-64
2021/08/28 21:48:17;;;;;;;4.78;3.15;;;;;;;14.08;100.00;102059.03;10456374;28;20055;-65
2021/08/28 21:53:19;;;;;;;5.60;3.22;;;;;;;14.19;100.00;102060.25;10456460;28;20045;-65
2021/08/28 21:58:21;;;;;;;6.85;3.05;;;;;;;14.31;100.00;102059.63;10456357;28;20055;-66
2021/08/28 22:03:24;;;;;;;5.57;3.25;;;;;;;14.27;100.00;102064.22;10464708;28;20052;-64
2021/08/28 22:08:26;;;;;;;8.35;3.00;;;;;;;14.28;100.00;102058.00;10464340;28;20057;-67
2021/08/28 22:13:29;;;;;;;12.15;5.07;;;;;;;14.15;100.00;102056.94;10463595;28;20489;-66
2021/08/28 22:18:34;;;;;;;6.30;3.30;;;;;;;14.18;100.00;102055.94;10463708;28;20045;-65
2021/08/28 22:23:36;;;;;;;6.75;2.92;;;;;;;14.30;100.00;102065.81;10463455;28;20049;-65
2021/08/28 22:28:38;;;;;;;5.05;3.38;;;;;;;14.35;100.00;102060.31;10463098;28;20056;-65
2021/08/28 22:33:41;;;;;;;9.30;3.20;;;;;;;14.54;100.00;102060.19;10463500;28;20174;-65
2021/08/28 22:38:44;;;;;;;6.00;3.45;;;;;;;14.34;100.00;102059.47;10462630;28;20045;-66
2021/08/28 22:43:49;;;;;;;5.40;3.25;;;;;;;14.23;100.00;102056.56;10463084;28;20127;-66
2021/08/28 22:48:51;;;;;;;9.18;3.33;;;;;;;14.38;100.00;102053.09;10462282;28;20049;-66
2021/08/28 22:53:53;;;;;;;9.73;4.60;;;;;;;14.40;100.00;102050.38;10462755;28;20049;-66
2021/08/28 22:58:55;;;;;;;5.88;3.55;;;;;;;14.60;100.00;102052.81;10461931;28;20040;-65
2021/08/28 23:03:58;;;;;;;8.57;3.88;;;;;;;14.38;100.00;102047.00;10462259;28;20044;-65
2021/08/28 23:09:00;;;;;;;6.22;3.70;;;;;;;14.63;100.00;102049.19;10462022;28;20057;-66